Time;durP1;ratioP1;P1;durP2;ratioP2;P2;SDS_P1;SDS_P2;PMS_P1;PMS_P2;Temp;Humidity;BMP_temperature;BMP_pressure;BME280_temperature;BME280_humidity;BME280_pressure;Samples;Min_cycle;Max_cycle;Signal;HPM_P1;HPM_P2
2022/11/24 00:01:20;;;;;;;11.00;1.70;;;6.40;99.90;;;;;;5024664;28;20037;-72
2022/11/24 00:04:00;;;;;;;11.65;1.27;;;6.40;99.90;;;;;;5058127;28;20048;-74
2022/11/24 00:06:29;;;;;;;9.88;2.42;;;6.30;99.90;;;;;;5018065;28;20045;-68
2022/11/24 00:08:57;;;;;;;8.63;1.20;;;6.20;99.90;;;;;;5019502;28;20041;-70
2022/11/24 00:11:28;;;;;;;9.20;1.05;;;6.10;99.90;;;;;;5025711;28;20053;-61
2022/11/24 00:13:57;;;;;;;9.48;1.45;;;6.00;99.90;;;;;;5027345;28;20053;-61
2022/11/24 00:16:27;;;;;;;10.45;1.33;;;6.00;99.90;;;;;;5008153;28;20607;-63
2022/11/24 00:18:57;;;;;;;12.18;2.15;;;6.00;99.90;;;;;;5028233;28;20052;-62
2022/11/24 00:21:26;;;;;;;13.88;1.48;;;6.00;99.90;;;;;;5010137;28;20076;-62
2022/11/24 00:23:54;;;;;;;13.93;1.05;;;5.90;99.90;;;;;;5030855;28;20052;-61
2022/11/24 00:26:33;;;;;;;13.18;1.42;;;5.90;99.90;;;;;;5040721;28;20042;-62
2022/11/24 00:29:06;;;;;;;7.53;1.13;;;5.90;99.90;;;;;;5059959;28;20057;-67
2022/11/24 00:31:36;;;;;;;4.93;1.02;;;5.80;99.90;;;;;;5009774;28;20042;-62
2022/11/24 00:34:09;;;;;;;6.05;0.70;;;5.80;99.90;;;;;;5029765;28;20037;-65
2022/11/24 00:36:37;;;;;;;11.85;2.00;;;5.70;99.90;;;;;;5008686;28;20060;-65
2022/11/24 00:39:08;;;;;;;14.20;0.95;;;5.70;99.90;;;;;;5026511;28;20052;-64
2022/11/24 00:41:36;;;;;;;7.88;1.20;;;5.70;99.90;;;;;;5027832;28;20497;-63
2022/11/24 00:44:04;;;;;;;5.07;1.20;;;5.60;99.90;;;;;;5027554;28;20053;-62
2022/11/24 00:46:33;;;;;;;8.93;1.17;;;5.60;99.90;;;;;;5019133;28;20062;-68
2022/11/24 00:49:01;;;;;;;6.75;1.40;;;5.70;99.90;;;;;;5019536;28;20060;-61
2022/11/24 00:51:29;;;;;;;13.15;1.05;;;5.60;99.90;;;;;;5025484;28;20052;-62
2022/11/24 00:53:58;;;;;;;6.80;0.90;;;5.60;99.90;;;;;;5026973;28;20504;-65
2022/11/24 00:56:27;;;;;;;7.50;0.60;;;5.60;99.90;;;;;;5025401;28;20211;-61
2022/11/24 00:58:54;;;;;;;6.63;0.83;;;5.60;99.90;;;;;;5023937;28;20042;-61
2022/11/24 01:01:25;;;;;;;5.30;0.57;;;5.70;99.90;;;;;;5022534;28;20050;-62
2022/11/24 01:03:54;;;;;;;13.48;1.75;;;5.70;99.90;;;;;;5014584;28;20042;-61
2022/11/24 01:06:24;;;;;;;10.70;0.80;;;5.70;99.90;;;;;;5021579;28;20052;-62
2022/11/24 01:08:52;;;;;;;4.05;0.60;;;5.80;99.90;;;;;;5024235;28;20045;-61
2022/11/24 01:11:23;;;;;;;5.45;0.70;;;5.80;99.90;;;;;;5027779;28;20057;-61
2022/11/24 01:13:54;;;;;;;13.02;1.60;;;5.80;99.90;;;;;;5037972;28;20376;-62
2022/11/24 01:16:33;;;;;;;10.82;0.80;;;5.90;99.90;;;;;;5023687;28;20045;-62
2022/11/24 01:19:02;;;;;;;5.53;0.85;;;6.00;99.90;;;;;;5018671;28;20080;-62
2022/11/24 01:21:30;;;;;;;9.00;0.85;;;6.00;99.90;;;;;;5027675;28;20056;-62
2022/11/24 01:23:57;;;;;;;3.75;0.70;;;6.20;99.90;;;;;;5025985;28;20049;-62
2022/11/24 01:26:25;;;;;;;7.47;1.52;;;6.00;99.90;;;;;;5026690;28;20409;-64
2022/11/24 01:28:55;;;;;;;8.13;1.40;;;6.00;99.90;;;;;;5025188;28;20049;-60
2022/11/24 01:31:23;;;;;;;5.57;0.70;;;6.00;99.90;;;;;;5023373;28;20058;-61
2022/11/24 01:33:51;;;;;;;10.55;1.45;;;6.00;99.90;;;;;;5022199;28;20481;-62
2022/11/24 01:36:20;;;;;;;7.75;1.20;;;6.10;99.90;;;;;;5017932;28;20405;-61
2022/11/24 01:38:47;;;;;;;14.20;1.77;;;6.10;99.90;;;;;;5016764;28;20365;-64
2022/11/24 01:41:20;;;;;;;9.43;0.98;;;5.00;99.90;;;;;;5027335;28;20053;-64
2022/11/24 01:43:49;;;;;;;5.53;0.90;;;6.00;99.90;;;;;;5027662;28;20049;-62
2022/11/24 01:46:26;;;;;;;9.90;1.10;;;6.00;99.90;;;;;;5021189;28;20053;-74
2022/11/24 01:49:08;;;;;;;6.25;1.10;;;6.00;99.90;;;;;;5017850;28;20069;-75
2022/11/24 01:51:42;;;;;;;8.90;0.85;;;6.00;99.90;;;;;;5027469;28;20049;-74
2022/11/24 01:54:16;;;;;;;9.32;1.77;;;6.00;99.90;;;;;;5009395;28;20045;-66
2022/11/24 01:56:50;;;;;;;7.90;0.93;;;5.90;99.90;;;;;;5024864;28;20053;-66
2022/11/24 01:59:19;;;;;;;9.07;0.90;;;5.90;99.90;;;;;;5024904;28;20037;-69
2022/11/24 02:01:50;;;;;;;7.40;1.42;;;5.90;99.90;;;;;;5025364;28;20072;-74
2022/11/24 02:04:24;;;;;;;6.65;0.93;;;5.90;99.90;;;;;;5025857;28;20045;-74
2022/11/24 02:06:53;;;;;;;11.32;0.85;;;5.90;99.90;;;;;;5019518;28;20045;-73
2022/11/24 02:09:41;;;;;;;5.90;0.70;;;5.90;99.90;;;;;;5025841;28;20516;-74
2022/11/24 02:12:10;;;;;;;9.57;2.53;;;5.90;99.90;;;;;;5024379;28;20302;-70
2022/11/24 02:14:39;;;;;;;13.50;1.13;;;5.80;99.90;;;;;;5027156;28;20053;-72
2022/11/24 02:17:07;;;;;;;11.00;1.35;;;5.80;99.90;;;;;;5025582;28;20501;-76
2022/11/24 02:19:53;;;;;;;18.95;2.35;;;5.60;99.90;;;;;;5046166;28;20045;-67
2022/11/24 02:22:44;;;;;;;11.50;1.23;;;5.60;99.90;;;;;;5049112;28;20041;-75
2022/11/24 02:25:27;;;;;;;8.40;1.67;;;5.60;99.90;;;;;;5010649;28;20358;-71
2022/11/24 02:27:57;;;;;;;6.18;1.13;;;5.50;99.90;;;;;;5045815;28;20057;-75
2022/11/24 02:30:24;;;;;;;;;;;5.50;99.90;;;;;;5031180;28;20045;-78
2022/11/24 02:32:52;;;;;;;8.25;1.27;;;5.40;99.90;;;;;;5022704;28;20385;-78
2022/11/24 02:35:20;;;;;;;12.70;0.93;;;5.40;99.90;;;;;;5033627;28;20042;-66
2022/11/24 02:37:47;;;;;;;9.43;1.33;;;5.40;99.90;;;;;;5032595;28;20315;-75
2022/11/24 02:40:19;;;;;;;8.48;0.95;;;5.30;99.90;;;;;;5032233;28;20046;-79
2022/11/24 02:42:47;;;;;;;9.90;1.63;;;5.30;99.90;;;;;;5032136;28;20052;-71
2022/11/24 02:45:15;;;;;;;8.98;1.52;;;5.30;99.90;;;;;;5032136;28;20049;-64
2022/11/24 02:47:43;;;;;;;8.95;1.50;;;5.30;99.90;;;;;;5019679;28;20510;-69
2022/11/24 02:50:10;;;;;;;9.65;1.48;;;5.20;99.90;;;;;;5013441;28;20134;-63
2022/11/24 02:52:38;;;;;;;7.72;1.20;;;5.30;99.90;;;;;;5028576;28;20532;-76
2022/11/24 02:55:06;;;;;;;7.88;1.55;;;5.20;99.90;;;;;;5027379;28;20104;-64
2022/11/24 02:57:33;;;;;;;10.82;1.42;;;5.20;99.90;;;;;;5030656;28;20061;-66
2022/11/24 03:00:01;;;;;;;14.55;1.58;;;5.20;99.90;;;;;;5031910;28;20048;-63
2022/11/24 03:02:30;;;;;;;10.43;1.40;;;5.20;99.90;;;;;;5032116;28;20551;-68
2022/11/24 03:04:57;;;;;;;9.43;1.15;;;5.20;99.90;;;;;;5031615;28;20140;-70
2022/11/24 03:07:25;;;;;;;11.18;1.20;;;5.20;99.90;;;;;;5016901;28;20050;-67
2022/11/24 03:09:52;;;;;;;15.52;1.80;;;5.20;99.90;;;;;;5030791;28;20045;-70
2022/11/24 03:12:20;;;;;;;4.93;1.38;;;5.10;99.90;;;;;;5032121;28;20056;-63
2022/11/24 03:14:48;;;;;;;17.90;3.55;;;5.10;99.90;;;;;;5031388;28;20063;-65
2022/11/24 03:17:15;;;;;;;13.10;2.17;;;5.10;99.90;;;;;;5034411;28;20057;-69
2022/11/24 03:19:43;;;;;;;15.73;2.20;;;5.10;99.90;;;;;;5013105;28;20371;-67
2022/11/24 03:22:12;;;;;;;12.15;1.83;;;5.10;99.90;;;;;;5012726;28;20050;-65
2022/11/24 03:24:39;;;;;;;11.25;1.92;;;5.10;99.90;;;;;;5012955;28;20042;-65
2022/11/24 03:27:07;;;;;;;12.05;1.08;;;5.00;99.90;;;;;;5016647;28;20161;-62
2022/11/24 03:29:34;;;;;;;10.63;1.20;;;5.00;99.90;;;;;;5012673;28;20041;-62
2022/11/24 03:32:02;;;;;;;11.27;2.15;;;5.00;99.90;;;;;;5013137;28;20425;-67
2022/11/24 03:34:30;;;;;;;12.77;1.80;;;5.00;99.90;;;;;;5024401;28;20376;-65
2022/11/24 03:36:58;;;;;;;10.57;1.38;;;4.90;99.90;;;;;;5032035;28;20052;-66
2022/11/24 03:39:25;;;;;;;10.23;1.40;;;4.90;99.90;;;;;;5032447;28;20505;-63
2022/11/24 03:41:53;;;;;;;12.77;2.20;;;4.90;99.90;;;;;;5017101;28;20053;-67
2022/11/24 03:44:20;;;;;;;16.17;1.85;;;4.90;99.90;;;;;;5010536;28;20410;-62
2022/11/24 03:46:49;;;;;;;8.32;1.27;;;4.90;99.90;;;;;;5016839;28;20049;-64
2022/11/24 03:49:17;;;;;;;16.00;2.50;;;4.90;99.90;;;;;;5012576;28;20502;-65
2022/11/24 03:51:45;;;;;;;18.42;1.83;;;4.80;99.90;;;;;;5032110;28;20049;-61
2022/11/24 03:54:12;;;;;;;17.42;3.72;;;4.90;99.90;;;;;;5029871;28;20053;-65
2022/11/24 03:56:40;;;;;;;13.07;1.27;;;4.90;99.90;;;;;;5029692;28;20038;-64
2022/11/24 03:59:07;;;;;;;9.95;1.65;;;4.90;99.90;;;;;;5030995;28;20397;-63
2022/11/24 04:01:35;;;;;;;13.82;1.77;;;4.90;99.90;;;;;;5025025;28;20045;-74
2022/11/24 04:04:02;;;;;;;10.65;2.10;;;4.90;99.90;;;;;;5027773;28;20053;-70
2022/11/24 04:06:30;;;;;;;15.75;1.17;;;4.90;99.90;;;;;;5031810;28;20045;-75
2022/11/24 04:08:59;;;;;;;20.42;1.65;;;4.90;99.90;;;;;;5031965;28;20050;-75
2022/11/24 04:14:13;;;;;;;10.10;1.58;;;4.90;99.90;;;;;;5020933;28;20053;-79
2022/11/24 04:16:40;;;;;;;14.88;1.52;;;4.90;99.90;;;;;;5023484;28;20046;-73
2022/11/24 04:19:08;;;;;;;10.90;1.73;;;4.90;99.90;;;;;;5011968;28;20053;-76
2022/11/24 04:21:36;;;;;;;16.63;2.33;;;5.00;99.90;;;;;;5027277;28;20042;-62
2022/11/24 04:24:03;;;;;;;10.73;1.10;;;5.00;99.90;;;;;;5022341;28;20049;-63
2022/11/24 04:26:31;;;;;;;12.07;2.10;;;5.00;99.90;;;;;;5011886;28;20038;-63
2022/11/24 04:28:59;;;;;;;16.58;1.50;;;5.10;99.90;;;;;;5012005;28;20053;-63
2022/11/24 04:31:26;;;;;;;8.73;1.98;;;5.10;99.90;;;;;;5011643;28;20046;-63
2022/11/24 04:33:54;;;;;;;11.73;1.83;;;5.10;99.90;;;;;;5016755;28;20041;-65
2022/11/24 04:36:22;;;;;;;12.98;2.40;;;5.10;99.90;;;;;;5016630;28;20060;-63
2022/11/24 04:38:52;;;;;;;17.75;2.28;;;5.20;99.90;;;;;;5030020;28;20046;-79
2022/11/24 04:41:40;;;;;;;21.75;1.95;;;5.10;99.90;;;;;;5031317;28;20041;-81
2022/11/24 04:44:07;;;;;;;10.27;1.85;;;5.20;99.90;;;;;;5024238;28;20046;-73
2022/11/24 04:46:35;;;;;;;15.07;1.50;;;5.10;99.90;;;;;;5020791;28;20058;-79
2022/11/24 04:49:03;;;;;;;18.95;3.83;;;5.10;99.90;;;;;;5029329;28;20049;-74
2022/11/24 04:51:30;;;;;;;14.65;1.92;;;5.10;99.90;;;;;;5029088;28;20049;-78
2022/11/24 04:53:58;;;;;;;18.90;3.25;;;;;;;;;;5018367;28;20050;-80
2022/11/24 04:56:26;;;;;;;9.88;1.90;;;5.10;99.90;;;;;;5012650;28;20045;-79
2022/11/24 04:58:53;;;;;;;21.20;2.85;;;5.20;99.90;;;;;;5011483;28;20050;-74
2022/11/24 05:01:21;;;;;;;14.40;1.92;;;5.10;99.90;;;;;;5011631;28;20053;-75
2022/11/24 05:03:48;;;;;;;20.15;3.13;;;5.10;99.90;;;;;;5019263;28;20088;-77
2022/11/24 05:06:16;;;;;;;12.27;1.17;;;5.00;99.90;;;;;;5026616;28;20054;-72
2022/11/24 05:08:46;;;;;;;10.05;1.67;;;5.00;99.90;;;;;;5026664;28;20500;-77
2022/11/24 05:11:14;;;;;;;8.00;1.45;;;5.00;99.90;;;;;;5031028;28;20057;-75
2022/11/24 05:13:42;;;;;;;19.23;2.28;;;4.90;99.90;;;;;;5028179;28;20041;-80
2022/11/24 05:16:10;;;;;;;18.60;2.25;;;4.90;99.90;;;;;;5013376;28;20532;-71
2022/11/24 05:18:37;;;;;;;16.90;2.22;;;4.80;99.90;;;;;;5030180;28;20037;-80
2022/11/24 05:21:05;;;;;;;14.80;2.70;;;4.80;99.90;;;;;;5029087;28;20073;-83
2022/11/24 05:23:33;;;;;;;20.88;2.17;;;4.70;99.90;;;;;;5012811;28;20045;-74
2022/11/24 05:26:01;;;;;;;13.00;2.47;;;4.70;99.90;;;;;;5027299;28;20513;-76
2022/11/24 05:28:29;;;;;;;13.05;2.20;;;4.60;99.90;;;;;;5030922;28;20049;-70
2022/11/24 05:31:03;;;;;;;15.13;1.77;;;4.50;99.90;;;;;;5016739;28;20034;-79
2022/11/24 05:33:32;;;;;;;20.17;2.35;;;4.50;99.90;;;;;;5010960;28;20046;-74
2022/11/24 05:36:01;;;;;;;24.25;2.10;;;4.50;99.90;;;;;;5012924;28;20057;-74
2022/11/24 05:38:29;;;;;;;17.25;1.60;;;4.50;99.90;;;;;;5028755;28;20049;-77
2022/11/24 05:41:04;;;;;;;22.15;1.70;;;4.50;99.90;;;;;;5029608;28;20053;-75
2022/11/24 05:43:32;;;;;;;18.88;1.92;;;4.40;99.90;;;;;;5030745;28;20045;-75
2022/11/24 05:46:00;;;;;;;15.43;2.03;;;4.40;99.90;;;;;;5025355;28;20058;-78
2022/11/24 05:48:28;;;;;;;24.48;2.08;;;4.40;99.90;;;;;;5010950;28;20494;-80
2022/11/24 05:50:57;;;;;;;18.48;2.92;;;4.40;99.90;;;;;;5010918;28;20053;-63
2022/11/24 05:53:25;;;;;;;24.33;2.53;;;4.30;99.90;;;;;;5011490;28;20057;-69
2022/11/24 05:55:53;;;;;;;17.77;2.10;;;4.30;99.90;;;;;;5010833;28;20057;-76
2022/11/24 05:58:21;;;;;;;23.70;2.60;;;4.20;99.90;;;;;;5020569;28;20045;-76
2022/11/24 06:00:48;;;;;;;24.45;2.85;;;4.20;99.90;;;;;;5032309;28;20045;-77
2022/11/24 06:03:16;;;;;;;17.33;1.58;;;4.20;99.90;;;;;;5016206;28;20954;-65
2022/11/24 06:05:46;;;;;;;16.63;2.58;;;4.30;99.90;;;;;;5027606;28;20072;-63
2022/11/24 06:08:14;;;;;;;12.80;2.30;;;4.30;99.90;;;;;;5028619;28;20045;-62
2022/11/24 06:10:41;;;;;;;18.27;2.25;;;4.30;99.90;;;;;;5027333;28;20053;-61
2022/11/24 06:13:09;;;;;;;23.60;2.00;;;4.30;99.90;;;;;;5027067;28;20516;-64
2022/11/24 06:15:37;;;;;;;15.95;1.95;;;4.20;99.90;;;;;;5027766;28;20053;-61
2022/11/24 06:18:05;;;;;;;18.05;2.47;;;4.40;99.90;;;;;;5023958;28;20057;-62
2022/11/24 06:20:32;;;;;;;16.67;2.20;;;4.20;99.90;;;;;;5006054;28;20417;-62
2022/11/24 06:23:00;;;;;;;27.60;2.42;;;4.20;99.90;;;;;;5017902;28;20056;-63
2022/11/24 06:25:28;;;;;;;24.73;2.47;;;4.20;99.90;;;;;;5025973;28;20046;-62
2022/11/24 06:27:56;;;;;;;13.13;2.88;;;4.10;99.90;;;;;;5025850;28;20049;-63
2022/11/24 06:30:23;;;;;;;26.75;2.83;;;4.10;99.90;;;;;;5007651;28;20050;-62
2022/11/24 06:32:54;;;;;;;18.83;3.33;;;4.10;99.90;;;;;;5024278;28;20048;-62
2022/11/24 06:35:22;;;;;;;22.40;3.13;;;4.10;99.90;;;;;;5011568;28;20057;-62
2022/11/24 06:37:49;;;;;;;21.10;3.58;;;4.10;99.90;;;;;;5016619;28;20056;-63
2022/11/24 06:40:19;;;;;;;27.85;2.65;;;4.10;99.90;;;;;;5024348;28;20054;-62
2022/11/24 06:42:51;;;;;;;17.02;2.28;;;4.10;99.90;;;;;;5034580;28;20052;-61
2022/11/24 06:45:19;;;;;;;26.08;2.75;;;4.20;99.90;;;;;;5045228;28;20076;-62
2022/11/24 06:47:46;;;;;;;28.80;2.90;;;4.10;99.90;;;;;;5040933;28;20057;-61
2022/11/24 06:50:15;;;;;;;33.22;2.22;;;4.10;99.90;;;;;;5013819;28;20049;-62
2022/11/24 06:52:42;;;;;;;32.70;3.72;;;4.10;99.90;;;;;;5023491;28;20060;-62
2022/11/24 06:55:10;;;;;;;12.35;2.22;;;4.10;99.90;;;;;;5027139;28;20046;-62
2022/11/24 06:57:38;;;;;;;15.82;2.17;;;4.10;99.90;;;;;;5030932;28;20049;-61
2022/11/24 07:00:06;;;;;;;14.43;2.70;;;4.00;99.90;;;;;;5025905;28;20052;-62
2022/11/24 07:02:34;;;;;;;14.55;2.60;;;4.00;99.90;;;;;;5024494;28;20396;-67
2022/11/24 07:05:02;;;;;;;23.27;4.22;;;4.00;99.90;;;;;;5014966;28;20053;-63
2022/11/24 07:07:30;;;;;;;22.85;3.65;;;4.00;99.90;;;;;;5014387;28;20049;-63
2022/11/24 07:09:57;;;;;;;20.40;3.13;;;4.00;99.90;;;;;;5022084;28;20064;-62
2022/11/24 07:12:25;;;;;;;18.48;2.53;;;4.00;99.90;;;;;;5023233;28;20057;-63
2022/11/24 07:14:52;;;;;;;21.48;2.67;;;4.00;99.90;;;;;;5025539;28;20054;-62
2022/11/24 07:17:20;;;;;;;14.15;2.63;;;4.00;99.90;;;;;;5024674;28;20061;-62
2022/11/24 07:19:48;;;;;;;20.77;2.92;;;4.00;99.90;;;;;;5014358;28;20045;-65
2022/11/24 07:22:16;;;;;;;21.02;2.63;;;4.00;99.90;;;;;;5014289;28;20447;-69
2022/11/24 07:24:43;;;;;;;29.80;2.83;;;4.00;99.90;;;;;;5030243;28;20049;-65
2022/11/24 07:27:11;;;;;;;28.25;2.90;;;4.10;99.90;;;;;;5007334;28;20046;-64
2022/11/24 07:29:38;;;;;;;35.30;3.70;;;4.10;99.90;;;;;;5046335;28;20412;-63
2022/11/24 07:32:06;;;;;;;29.20;2.95;;;4.30;99.90;;;;;;5042958;28;20056;-63
2022/11/24 07:34:34;;;;;;;27.50;3.15;;;4.40;99.90;;;;;;5019490;28;20044;-62
2022/11/24 07:37:02;;;;;;;28.38;2.38;;;4.50;99.90;;;;;;5019759;28;20363;-62
2022/11/24 07:39:29;;;;;;;24.35;2.25;;;4.50;99.90;;;;;;5014876;28;20053;-63
2022/11/24 07:41:59;;;;;;;15.27;2.05;;;4.70;99.90;;;;;;5010882;28;20052;-62
2022/11/24 07:44:26;;;;;;;34.05;4.20;;;4.70;99.90;;;;;;5024753;28;20046;-64
2022/11/24 07:46:54;;;;;;;35.70;5.35;;;4.80;99.90;;;;;;5025390;28;20045;-63
2022/11/24 07:49:22;;;;;;;13.68;2.40;;;4.80;99.90;;;;;;5010400;28;20050;-75
2022/11/24 07:51:50;;;;;;;22.38;2.97;;;4.90;99.90;;;;;;5018037;28;20046;-69
2022/11/24 07:54:17;;;;;;;22.48;3.05;;;5.00;99.90;;;;;;5030923;28;20056;-74
2022/11/24 07:56:47;;;;;;;26.33;2.30;;;5.10;99.90;;;;;;5023046;28;20049;-67
2022/11/24 07:59:15;;;;;;;;;;;5.10;99.90;;;;;;5042830;28;20057;-68
2022/11/24 08:01:42;;;;;;;17.85;1.85;;;5.20;99.90;;;;;;5021008;28;19921;-75
2022/11/24 08:04:10;;;;;;;30.52;2.38;;;5.20;99.90;;;;;;5041911;28;20504;-78
2022/11/24 08:06:38;;;;;;;18.17;2.45;;;5.30;99.90;;;;;;5005159;28;20046;-73
2022/11/24 08:09:13;;;;;;;40.78;2.83;;;5.30;99.90;;;;;;5023033;28;20045;-81
2022/11/24 08:11:41;;;;;;;26.20;2.25;;;5.40;99.90;;;;;;5004295;28;20052;-81
2022/11/24 08:14:09;;;;;;;32.03;3.42;;;5.40;99.90;;;;;;5042404;28;20397;-79
2022/11/24 08:16:37;;;;;;;27.40;2.42;;;5.40;99.90;;;;;;5045076;28;20048;-82
2022/11/24 08:19:05;;;;;;;23.75;4.50;;;5.50;99.90;;;;;;5028860;28;20045;-71
2022/11/24 08:21:33;;;;;;;23.27;2.53;;;5.50;99.90;;;;;;4998038;28;20057;-70
2022/11/24 08:24:01;;;;;;;28.25;3.05;;;5.60;99.90;;;;;;5014280;28;20053;-75
2022/11/24 08:26:28;;;;;;;32.10;3.88;;;5.60;99.90;;;;;;5022436;28;20413;-74
2022/11/24 08:28:57;;;;;;;31.08;3.67;;;5.70;99.90;;;;;;5012582;28;20053;-67
2022/11/24 08:31:32;;;;;;;22.58;3.28;;;5.80;99.90;;;;;;5005896;28;20049;-70
2022/11/24 08:34:04;;;;;;;24.73;2.90;;;5.80;99.90;;;;;;5042096;28;20049;-70
2022/11/24 08:36:33;;;;;;;23.48;2.72;;;5.90;99.90;;;;;;5005954;28;20481;-62
2022/11/24 08:39:01;;;;;;;27.13;3.22;;;5.90;99.90;;;;;;5018872;28;20069;-64
2022/11/24 08:41:29;;;;;;;28.90;3.17;;;6.00;99.90;;;;;;5020640;28;20064;-64
2022/11/24 08:43:57;;;;;;;27.00;2.78;;;6.00;99.90;;;;;;5024232;28;20052;-64
2022/11/24 08:46:24;;;;;;;24.40;2.58;;;6.10;99.90;;;;;;5030393;28;20052;-63
2022/11/24 08:48:53;;;;;;;32.92;3.40;;;6.10;99.90;;;;;;5034140;28;20307;-63
2022/11/24 08:51:24;;;;;;;27.13;2.47;;;6.20;99.90;;;;;;5008905;28;20056;-64
2022/11/24 08:53:57;;;;;;;23.17;3.17;;;6.30;99.90;;;;;;5035757;28;20947;-63
2022/11/24 08:56:27;;;;;;;23.75;3.80;;;6.50;99.90;;;;;;5036257;28;20049;-63
2022/11/24 08:58:55;;;;;;;36.33;3.15;;;6.50;99.90;;;;;;5024498;28;20053;-64
2022/11/24 09:01:24;;;;;;;29.05;3.70;;;6.60;99.90;;;;;;5023065;28;20053;-63
2022/11/24 09:03:52;;;;;;;36.28;5.07;;;6.60;99.90;;;;;;5017202;28;20065;-62
2022/11/24 09:06:23;;;;;;;31.95;4.50;;;6.70;99.90;;;;;;5010814;28;20561;-63
2022/11/24 09:08:53;;;;;;;31.80;4.28;;;6.70;99.90;;;;;;5014694;28;20045;-63
2022/11/24 09:11:21;;;;;;;23.70;2.90;;;6.80;99.90;;;;;;5007603;28;20053;-62
2022/11/24 09:13:49;;;;;;;19.70;3.60;;;6.80;99.90;;;;;;5023343;28;20522;-63
2022/11/24 09:16:19;;;;;;;35.85;5.25;;;6.90;99.90;;;;;;5027985;28;20053;-62
2022/11/24 09:18:54;;;;;;;31.90;3.85;;;6.90;99.90;;;;;;5030695;28;20041;-63
2022/11/24 09:21:24;;;;;;;30.63;4.28;;;7.00;99.90;;;;;;5015025;28;20072;-63
2022/11/24 09:23:53;;;;;;;17.48;2.60;;;7.10;99.90;;;;;;5010844;28;20439;-63
2022/11/24 09:26:26;;;;;;;23.15;4.32;;;7.10;99.90;;;;;;5027993;28;20050;-63
2022/11/24 09:28:56;;;;;;;24.15;2.78;;;7.10;99.90;;;;;;5018652;28;20068;-63
2022/11/24 09:31:27;;;;;;;28.52;3.10;;;7.10;99.90;;;;;;5015915;28;20054;-63
2022/11/24 09:33:54;;;;;;;26.30;3.92;;;7.20;99.90;;;;;;5016914;28;20038;-63
2022/11/24 09:36:23;;;;;;;24.17;3.05;;;7.30;99.90;;;;;;5012412;28;20048;-63
2022/11/24 09:38:51;;;;;;;37.10;3.30;;;7.30;99.90;;;;;;5039446;28;20472;-63
2022/11/24 09:41:31;;;;;;;24.25;2.80;;;7.30;99.90;;;;;;5022727;28;20045;-63
2022/11/24 09:44:07;;;;;;;31.75;3.05;;;7.30;99.90;;;;;;5029228;28;20048;-63
2022/11/24 09:46:49;;;;;;;30.60;3.13;;;7.40;99.90;;;;;;5046845;28;20493;-63
2022/11/24 09:49:48;;;;;;;16.42;3.58;;;7.40;99.90;;;;;;5047168;28;20060;-66
2022/11/24 09:52:29;;;;;;;16.25;2.55;;;7.40;99.90;;;;;;5007285;28;20050;-62
2022/11/24 09:55:01;;;;;;;26.03;4.43;;;7.50;99.90;;;;;;5016579;28;20409;-63
2022/11/24 09:57:34;;;;;;;33.45;4.55;;;7.60;99.90;;;;;;5033326;28;20401;-63
2022/11/24 10:00:11;;;;;;;23.48;3.75;;;7.50;99.90;;;;;;5033163;28;20046;-66
2022/11/24 10:02:39;;;;;;;22.17;3.28;;;7.60;99.90;;;;;;5017260;28;20053;-63
2022/11/24 10:05:07;;;;;;;26.08;2.92;;;7.70;99.90;;;;;;5022313;28;20046;-63
2022/11/24 10:08:10;;;;;;;15.32;2.50;;;7.70;99.90;;;;;;5020662;28;20497;-63
2022/11/24 10:11:12;;;;;;;21.55;3.15;;;7.80;99.90;;;;;;5023356;28;20050;-64
2022/11/24 10:13:52;;;;;;;29.48;4.68;;;7.90;99.90;;;;;;5014252;28;20060;-63
2022/11/24 10:16:31;;;;;;;24.92;3.10;;;7.90;99.90;;;;;;5022173;28;20052;-63
2022/11/24 10:19:33;;;;;;;26.95;3.67;;;8.00;99.90;;;;;;5029429;28;20052;-63
2022/11/24 10:22:16;;;;;;;24.63;2.88;;;8.10;99.90;;;;;;5026515;28;20045;-64
2022/11/24 10:25:12;;;;;;;29.75;4.90;;;8.10;99.90;;;;;;5030592;28;20053;-63
2022/11/24 10:27:43;;;;;;;22.20;2.90;;;8.20;99.90;;;;;;5030493;28;20045;-63
2022/11/24 10:30:14;;;;;;;26.42;3.80;;;8.20;99.90;;;;;;5024044;28;20057;-63
2022/11/24 10:32:48;;;;;;;26.92;3.30;;;8.30;99.90;;;;;;5027300;28;20073;-63
2022/11/24 10:35:18;;;;;;;22.15;3.55;;;8.40;99.90;;;;;;5029377;28;20044;-63
2022/11/24 10:38:05;;;;;;;22.88;3.83;;;8.40;99.90;;;;;;5025531;28;20481;-63
2022/11/24 10:40:35;;;;;;;21.27;3.80;;;8.40;99.90;;;;;;5026818;28;20053;-63
2022/11/24 10:43:25;;;;;;;30.75;4.30;;;8.50;99.90;;;;;;5025952;28;20048;-62
2022/11/24 10:46:11;;;;;;;;;;;8.60;99.90;;;;;;5027181;28;20049;-63
2022/11/24 10:48:48;;;;;;;39.60;4.78;;;8.60;99.90;;;;;;5017838;28;19922;-66
2022/11/24 10:52:00;;;;;;;41.15;5.03;;;8.60;99.90;;;;;;5021628;28;20045;-63
2022/11/24 10:54:28;;;;;;;30.75;3.80;;;8.60;99.90;;;;;;5026737;28;20484;-61
2022/11/24 10:56:56;;;;;;;21.25;3.25;;;8.60;99.90;;;;;;5029946;28;20401;-63
2022/11/24 10:59:24;;;;;;;34.72;5.20;;;8.60;99.90;;;;;;5041809;28;20050;-72
2022/11/24 11:01:52;;;;;;;40.08;4.30;;;8.60;99.90;;;;;;5030129;28;20049;-78
2022/11/24 11:04:31;;;;;;;31.50;4.28;;;8.70;99.90;;;;;;5015304;28;20049;-70
2022/11/24 11:07:13;;;;;;;25.98;3.33;;;8.60;99.90;;;;;;5011467;28;20054;-63
2022/11/24 11:09:41;;;;;;;25.08;3.55;;;8.70;99.90;;;;;;5023556;28;20634;-64
2022/11/24 11:12:30;;;;;;;21.83;2.88;;;8.70;99.90;;;;;;5016155;28;20045;-62
2022/11/24 11:15:23;;;;;;;36.28;5.35;;;8.70;99.90;;;;;;5029676;28;20045;-62
2022/11/24 11:17:56;;;;;;;27.45;3.17;;;8.80;99.90;;;;;;5020807;28;20040;-62
2022/11/24 11:20:33;;;;;;;30.63;4.50;;;8.90;99.90;;;;;;5012982;28;20057;-61
2022/11/24 11:23:14;;;;;;;24.48;3.20;;;9.20;99.90;;;;;;5016024;28;20053;-67
2022/11/24 11:25:42;;;;;;;20.02;2.47;;;9.20;99.90;;;;;;5009728;28;20521;-80
2022/11/24 11:28:29;;;;;;;33.72;4.05;;;9.40;99.90;;;;;;5014102;28;20038;-61
2022/11/24 11:31:02;;;;;;;27.50;3.45;;;9.50;99.90;;;;;;5028715;28;20386;-77
2022/11/24 11:34:17;;;;;;;37.42;3.50;;;9.60;99.90;;;;;;5010588;28;20053;-61
2022/11/24 11:36:58;;;;;;;27.80;4.07;;;9.70;99.90;;;;;;5015011;28;20042;-61
2022/11/24 11:39:33;;;;;;;19.98;3.38;;;9.70;99.90;;;;;;5030096;28;20492;-62
2022/11/24 11:42:23;;;;;;;26.83;2.97;;;9.80;99.90;;;;;;5048665;28;20048;-61
2022/11/24 11:45:38;;;;;;;19.23;2.95;;;9.80;99.90;;;;;;5011386;28;20042;-61
2022/11/24 11:48:29;;;;;;;23.30;3.33;;;9.80;99.90;;;;;;5024676;28;20064;-61
2022/11/24 11:51:25;;;;;;;31.98;4.97;;;9.90;99.90;;;;;;5023327;28;20045;-61
2022/11/24 11:54:26;;;;;;;17.27;2.53;;;9.90;99.90;;;;;;5015949;28;20397;-64
2022/11/24 11:57:04;;;;;;;;;;;9.90;99.90;;;;;;5020622;28;20054;-61
2022/11/24 11:59:47;;;;;;;21.52;2.58;;;9.90;99.90;;;;;;5011875;28;20286;-61
2022/11/24 12:02:42;;;;;;;22.50;2.60;;;10.00;99.90;;;;;;5014023;28;20501;-61
2022/11/24 12:05:54;;;;;;;19.83;3.28;;;10.00;99.90;;;;;;5023554;28;20065;-62
2022/11/24 12:08:48;;;;;;;27.77;4.40;;;10.00;99.90;;;;;;5019560;28;20046;-61
2022/11/24 12:11:59;;;;;;;30.27;2.85;;;10.00;99.90;;;;;;5017351;28;20042;-71
2022/11/24 12:14:55;;;;;;;19.85;3.55;;;10.10;99.90;;;;;;5009039;28;20050;-70
2022/11/24 12:17:39;;;;;;;24.27;2.60;;;10.10;99.90;;;;;;5023090;28;20068;-61
2022/11/24 12:20:17;;;;;;;23.90;3.35;;;10.20;99.90;;;;;;5037756;28;20662;-69
2022/11/24 12:22:59;;;;;;;19.70;2.65;;;10.20;99.90;;;;;;5013682;28;20064;-61
2022/11/24 12:25:44;;;;;;;18.58;3.20;;;10.20;99.90;;;;;;5016063;28;20056;-61
2022/11/24 12:28:49;;;;;;;24.10;3.92;;;10.20;99.90;;;;;;5016304;28;20042;-61
2022/11/24 12:31:35;;;;;;;13.13;2.03;;;10.20;99.90;;;;;;5014700;28;20548;-63
2022/11/24 12:34:17;;;;;;;11.82;1.85;;;10.30;99.90;;;;;;5021928;28;20049;-60
2022/11/24 12:37:22;;;;;;;16.55;2.50;;;10.30;99.90;;;;;;5014900;28;20167;-62
2022/11/24 12:40:26;;;;;;;20.33;3.60;;;10.40;99.90;;;;;;5009146;28;20055;-64
2022/11/24 12:43:23;;;;;;;21.73;2.83;;;10.40;99.90;;;;;;5014344;28;20049;-61
2022/11/24 12:46:11;;;;;;;11.57;2.33;;;10.50;99.90;;;;;;5009426;28;20056;-61
2022/11/24 12:49:11;;;;;;;19.05;2.40;;;10.50;99.90;;;;;;5027872;28;20038;-61
2022/11/24 12:51:45;;;;;;;13.13;1.73;;;10.50;99.90;;;;;;5015986;28;20045;-61
2022/11/24 12:54:18;;;;;;;15.60;2.33;;;10.50;99.90;;;;;;5017373;28;20042;-61
2022/11/24 12:56:54;;;;;;;27.90;4.07;;;10.50;99.90;;;;;;5012320;28;20528;-64
2022/11/24 12:59:40;;;;;;;19.85;2.42;;;10.50;99.90;;;;;;5032189;28;20034;-60
2022/11/24 13:02:35;;;;;;;26.67;2.22;;;10.50;99.90;;;;;;5027449;28;20057;-61
2022/11/24 13:05:24;;;;;;;22.23;2.83;;;10.40;99.90;;;;;;5023259;28;20046;-60
2022/11/24 13:08:01;;;;;;;17.77;3.42;;;10.40;99.90;;;;;;5022918;28;20057;-61
2022/11/24 13:10:37;;;;;;;14.43;2.60;;;10.40;99.90;;;;;;5016496;28;20053;-61
2022/11/24 13:14:06;;;;;;;24.33;3.78;;;10.40;99.90;;;;;;5011252;28;20216;-65
2022/11/24 13:16:46;;;;;;;16.53;3.00;;;10.30;99.90;;;;;;5016477;28;20045;-69
2022/11/24 13:19:36;;;;;;;23.45;3.83;;;10.30;99.90;;;;;;5014465;28;20299;-76
2022/11/24 13:22:21;;;;;;;21.60;3.13;;;10.30;99.90;;;;;;5024689;28;20045;-67